Aragon, New Mexico
Current Conditions -  °F | °C
As of 3:35 PM on Saturday 25 Oct 2014 (Local Time) from KJTC Reporting Station
Scattered Clouds Scattered Clouds  
Wind Chill: 75°   Ceiling: Unl
Heat Index: 75°   Visibility: 10mi
Dew Point: 34°   Wind: 8mph
Humidity: 22%   Direction: 290°WNW
Pressure: 30.34"   Gusts: NA
Location:  33.88°N, 108.54°W
Report Text: KJTC 252135Z AUTO 29007KT 250V320 10SM SCT085 24/01 A3034 RMK AO2
Loading
Personal Weather Stations






























Interactive Weather Map
Tropical Storm Tracking
New forecast layout! Learn more

10-Day Weather Forecast

Advertisements
Track Severe Weather on mobile